LGPZ/PVK METAR and TAF weather

Enter ICAO airport designator
Station Type Date Time Source
LGPZ METAR 2019/02/16 17:20 UTC NOAA

LGPZ 161720Z 09004KT CAVOK 08/01 Q1026


Station Type Date Time Source
LGPZ Decoded METAR 2019/02/16 17:20 UTC NOAA

Aktion Airport , Greece (LGPZ) 38-37N 020-46E 4M
Feb 16, 2019 - 12:20 PM EST / 2019.02.16 1720 UTC
Wind: from the E (090 degrees) at 5 MPH (4 KT):0
Visibility: greater than 7 mile(s):0
Temperature: 46 F (8 C)
Dew Point: 33 F (1 C)
Relative Humidity: 61%
Pressure (altimeter): 30.30 in. Hg (1026 hPa)
ob: LGPZ 161720Z 09004KT CAVOK 08/01 Q1026
cycle: 17

Station Type Date Time Source
LGPZ TAF 2019/02/16 18:16 UTC NOAA

TAF LGPZ 161700Z 1618/1718 VRB05KT 9999 FEW020
BECMG 1710/1712 32010KT


Example: see airport list